createdAt,value
2022-11-04T00:01:50.387Z,1.00
2022-11-04T00:04:18.962Z,1.10
2022-11-04T00:06:46.698Z,1.10
2022-11-04T00:09:17.379Z,1.30
2022-11-04T00:11:44.964Z,1.20
2022-11-04T00:14:13.122Z,1.33
2022-11-04T00:16:40.963Z,1.50
2022-11-04T00:19:08.570Z,1.80
2022-11-04T00:21:36.149Z,1.50
2022-11-04T00:24:03.701Z,1.50
2022-11-04T00:26:31.178Z,1.80
2022-11-04T00:28:58.745Z,1.63
2022-11-04T00:31:26.233Z,2.17
2022-11-04T00:33:54.873Z,1.40
2022-11-04T00:36:23.706Z,1.90
2022-11-04T00:38:51.310Z,1.83
2022-11-04T00:41:18.928Z,1.77
2022-11-04T00:43:46.390Z,2.10
2022-11-04T00:46:13.915Z,2.10
2022-11-04T00:48:41.531Z,2.07
2022-11-04T00:51:09.049Z,2.10
2022-11-04T00:53:36.547Z,2.20
2022-11-04T00:56:04.125Z,2.23
2022-11-04T00:58:31.612Z,2.30
2022-11-04T01:00:59.217Z,2.17
2022-11-04T01:03:26.808Z,2.50
2022-11-04T01:05:54.307Z,2.10
2022-11-04T01:08:21.739Z,2.43
2022-11-04T01:10:49.261Z,2.37
2022-11-04T01:13:16.711Z,2.40
2022-11-04T01:15:44.322Z,2.63
2022-11-04T01:18:11.739Z,2.60
2022-11-04T01:20:39.224Z,2.67
2022-11-04T01:23:06.795Z,2.87
2022-11-04T01:25:34.306Z,2.77
2022-11-04T01:28:01.806Z,3.27
2022-11-04T01:30:29.314Z,2.50
2022-11-04T01:32:56.913Z,3.10
2022-11-04T01:35:24.436Z,3.10
2022-11-04T01:37:51.893Z,3.30
2022-11-04T01:40:19.435Z,3.17
2022-11-04T01:42:47.024Z,3.00
2022-11-04T01:45:15.369Z,3.80
2022-11-04T01:47:45.374Z,3.03
2022-11-04T01:50:18.032Z,3.23
2022-11-04T01:52:51.475Z,3.57
2022-11-04T01:55:24.310Z,3.77
2022-11-04T01:57:53.524Z,3.70
2022-11-04T02:00:21.079Z,3.40
2022-11-04T02:02:54.414Z,3.40
2022-11-04T02:05:22.121Z,2.93
2022-11-04T02:07:51.241Z,3.30
2022-11-04T02:10:20.783Z,3.17
2022-11-04T02:12:49.526Z,3.40
2022-11-04T02:15:24.222Z,2.63
2022-11-04T02:18:01.274Z,3.13
2022-11-04T02:20:44.997Z,2.93
2022-11-04T02:23:12.458Z,2.37
2022-11-04T02:25:43.038Z,2.53
2022-11-04T02:28:19.635Z,2.93
2022-11-04T02:30:55.970Z,2.27
2022-11-04T02:33:26.894Z,2.43
2022-11-04T02:35:54.345Z,2.50
2022-11-04T02:38:38.591Z,2.90
2022-11-04T02:41:06.103Z,2.40
2022-11-04T02:43:42.507Z,2.23
2022-11-04T02:46:22.004Z,2.23
2022-11-04T02:49:01.940Z,2.23
2022-11-04T02:51:36.315Z,2.27
2022-11-04T02:54:10.224Z,2.03
2022-11-04T02:56:40.698Z,2.53
2022-11-04T02:59:14.264Z,2.13
2022-11-04T03:01:43.862Z,2.27
2022-11-04T03:04:14.172Z,2.70
2022-11-04T03:06:43.210Z,2.60
2022-11-04T03:09:12.458Z,1.93
2022-11-04T03:11:41.349Z,2.30
2022-11-04T03:14:11.223Z,2.20
2022-11-04T03:16:44.931Z,2.07
2022-11-04T03:19:18.203Z,2.67
2022-11-04T03:21:53.903Z,2.70
2022-11-04T03:24:21.558Z,1.73
2022-11-04T03:27:03.687Z,2.47
2022-11-04T03:29:35.955Z,2.20
2022-11-04T03:32:23.493Z,2.20
2022-11-04T03:34:51.460Z,2.07
2022-11-04T03:37:18.981Z,2.23
2022-11-04T03:39:46.731Z,2.00
2022-11-04T03:42:14.901Z,2.30
2022-11-04T03:44:42.507Z,2.57
2022-11-04T03:47:09.984Z,2.70
2022-11-04T03:49:37.489Z,2.37
2022-11-04T03:52:05.026Z,1.97
2022-11-04T03:54:32.543Z,2.03
2022-11-04T03:57:06.006Z,1.93
2022-11-04T03:59:58.537Z,2.20
2022-11-04T04:02:49.259Z,2.00
2022-11-04T04:05:39.489Z,2.30
2022-11-04T04:08:16.293Z,2.20
2022-11-04T04:10:50.078Z,2.13
2022-11-04T04:13:20.672Z,2.30
2022-11-04T04:15:48.186Z,2.10
2022-11-04T04:18:17.726Z,2.50
2022-11-04T04:20:46.113Z,2.80
2022-11-04T04:23:19.166Z,3.17
2022-11-04T04:25:46.767Z,2.73
2022-11-04T04:28:15.522Z,3.00
2022-11-04T04:30:44.322Z,2.20
2022-11-04T04:33:13.806Z,2.47
2022-11-04T04:35:44.535Z,2.47
2022-11-04T04:38:20.675Z,2.67
2022-11-04T04:40:51.555Z,2.77
2022-11-04T04:43:19.055Z,2.57
2022-11-04T04:45:50.759Z,2.20
2022-11-04T04:48:18.395Z,2.17
2022-11-04T04:50:47.467Z,2.40
2022-11-04T04:53:15.126Z,2.13
2022-11-04T04:55:42.599Z,2.13
2022-11-04T04:58:10.276Z,2.73
2022-11-04T05:00:38.164Z,2.50
2022-11-04T05:03:05.791Z,2.20
2022-11-04T05:05:33.376Z,2.50
2022-11-04T05:08:08.042Z,2.30
2022-11-04T05:10:35.904Z,2.77
2022-11-04T05:13:03.359Z,2.70
2022-11-04T05:15:30.938Z,2.00
2022-11-04T05:17:59.719Z,2.20
2022-11-04T05:20:27.739Z,2.00
2022-11-04T05:22:55.627Z,2.27
2022-11-04T05:25:23.091Z,2.63
2022-11-04T05:27:50.570Z,2.70
2022-11-04T05:30:18.150Z,2.53
2022-11-04T05:32:45.601Z,2.33
2022-11-04T05:35:13.136Z,2.20
2022-11-04T05:37:40.639Z,2.63
2022-11-04T05:40:08.471Z,2.43
2022-11-04T05:42:35.949Z,2.40
2022-11-04T05:45:04.087Z,2.30
2022-11-04T05:47:31.547Z,2.87
2022-11-04T05:49:59.248Z,2.70
2022-11-04T05:52:26.746Z,2.30
2022-11-04T05:54:54.204Z,2.30
2022-11-04T05:57:21.692Z,2.17
2022-11-04T05:59:49.256Z,2.13
2022-11-04T06:02:16.835Z,1.90
2022-11-04T06:04:44.428Z,1.77
2022-11-04T06:07:11.860Z,2.23
2022-11-04T06:09:39.430Z,2.23
2022-11-04T06:12:06.965Z,2.30
2022-11-04T06:14:34.471Z,2.43
2022-11-04T06:17:02.066Z,2.50
2022-11-04T06:19:29.634Z,2.53
2022-11-04T06:21:57.108Z,2.50
2022-11-04T06:24:24.655Z,2.73
2022-11-04T06:26:52.139Z,2.50
2022-11-04T06:29:19.690Z,2.33
2022-11-04T06:31:47.323Z,2.20
2022-11-04T06:34:14.830Z,2.40
2022-11-04T06:36:42.335Z,2.67
2022-11-04T06:39:09.917Z,2.40
2022-11-04T06:41:37.751Z,3.00
2022-11-04T06:44:05.291Z,2.50
2022-11-04T06:46:37.630Z,3.13
2022-11-04T06:49:10.515Z,2.77
2022-11-04T06:51:38.228Z,2.50
2022-11-04T06:54:06.016Z,2.57
2022-11-04T06:56:33.634Z,2.77
2022-11-04T06:59:01.144Z,2.70
2022-11-04T07:01:30.375Z,2.77
2022-11-04T07:03:59.111Z,2.83
2022-11-04T07:06:27.345Z,3.10
2022-11-04T07:08:54.855Z,3.10
2022-11-04T07:11:22.795Z,3.30
2022-11-04T07:13:50.554Z,3.30
2022-11-04T07:16:18.575Z,3.10
2022-11-04T07:18:46.115Z,3.13
2022-11-04T07:21:13.645Z,2.60
2022-11-04T07:23:41.083Z,2.83
2022-11-04T07:26:09.529Z,3.13
2022-11-04T07:28:37.382Z,2.77
2022-11-04T07:31:05.958Z,2.80
2022-11-04T07:33:33.853Z,3.00
2022-11-04T07:36:05.446Z,2.80
2022-11-04T07:38:33.130Z,3.10
2022-11-04T07:41:00.731Z,3.63
2022-11-04T07:43:28.246Z,3.43
2022-11-04T07:46:06.329Z,3.37
2022-11-04T07:48:33.818Z,3.17
2022-11-04T07:51:01.720Z,2.63
2022-11-04T07:53:30.132Z,3.03
2022-11-04T07:55:58.030Z,4.00
2022-11-04T07:58:25.769Z,3.20
2022-11-04T08:01:03.055Z,2.90
2022-11-04T08:03:30.677Z,3.20
2022-11-04T08:05:59.316Z,2.60
2022-11-04T08:08:27.640Z,3.00
2022-11-04T08:10:59.485Z,3.10
2022-11-04T08:13:31.050Z,3.00
2022-11-04T08:16:01.769Z,3.00
2022-11-04T08:18:29.539Z,3.53
2022-11-04T08:20:57.118Z,3.17
2022-11-04T08:23:24.659Z,3.57
2022-11-04T08:25:52.299Z,3.60
2022-11-04T08:28:19.858Z,3.97
2022-11-04T08:30:58.259Z,4.40
2022-11-04T08:33:26.372Z,3.30
2022-11-04T08:35:54.677Z,3.03
2022-11-04T08:38:22.560Z,3.73
2022-11-04T08:40:51.074Z,3.20
2022-11-04T08:43:22.976Z,3.07
2022-11-04T08:45:50.578Z,3.27
2022-11-04T08:48:18.292Z,3.23
2022-11-04T08:50:49.524Z,3.80
2022-11-04T08:53:25.782Z,2.93
2022-11-04T08:55:53.366Z,2.77
2022-11-04T08:58:20.836Z,3.70
2022-11-04T09:00:48.379Z,2.57
2022-11-04T09:03:16.462Z,2.67
2022-11-04T09:05:43.976Z,3.07
2022-11-04T09:08:18.396Z,3.03
2022-11-04T09:10:47.223Z,2.70
2022-11-04T09:13:15.620Z,3.10
2022-11-04T09:15:43.640Z,2.47
2022-11-04T09:18:11.233Z,2.70
2022-11-04T09:20:38.695Z,2.73
2022-11-04T09:23:07.981Z,4.00
2022-11-04T09:25:36.039Z,2.83
2022-11-04T09:28:03.603Z,2.50
2022-11-04T09:30:31.128Z,3.00
2022-11-04T09:32:58.929Z,2.90
2022-11-04T09:35:26.709Z,3.37
2022-11-04T09:37:54.606Z,3.27
2022-11-04T09:40:24.060Z,4.10
2022-11-04T09:43:14.992Z,3.37
2022-11-04T09:45:44.429Z,3.47
2022-11-04T09:48:23.013Z,3.63
2022-11-04T09:50:55.841Z,3.43
2022-11-04T09:53:41.557Z,3.60
2022-11-04T09:56:14.443Z,3.50
2022-11-04T09:58:45.307Z,2.60
2022-11-04T10:01:16.020Z,2.93
2022-11-04T10:03:43.803Z,2.60
2022-11-04T10:06:23.332Z,2.50
2022-11-04T10:09:02.314Z,2.70
2022-11-04T10:11:31.823Z,3.20
2022-11-04T10:14:12.916Z,2.50
2022-11-04T10:17:02.746Z,2.20
2022-11-04T10:20:18.416Z,2.80
2022-11-04T10:22:56.305Z,2.67
2022-11-04T10:25:26.113Z,2.13
2022-11-04T10:27:53.693Z,2.57
2022-11-04T10:30:22.533Z,2.87
2022-11-04T10:33:05.867Z,2.60
2022-11-04T10:35:42.997Z,2.53
2022-11-04T10:38:22.704Z,2.60
2022-11-04T10:40:54.658Z,2.43
2022-11-04T10:43:26.957Z,5.63
2022-11-04T10:46:04.107Z,3.87
2022-11-04T10:48:36.798Z,3.57
2022-11-04T10:51:05.471Z,2.73
2022-11-04T10:53:33.627Z,2.63
2022-11-04T10:56:24.249Z,2.23
2022-11-04T10:58:53.566Z,2.83
2022-11-04T11:01:34.649Z,2.77
2022-11-04T11:04:06.660Z,2.47
2022-11-04T11:06:35.679Z,2.37
2022-11-04T11:09:12.365Z,2.87
2022-11-04T11:11:40.002Z,2.67
2022-11-04T11:14:15.862Z,2.30
2022-11-04T11:16:43.513Z,2.10
2022-11-04T11:19:22.218Z,2.97
2022-11-04T11:21:57.010Z,2.43
2022-11-04T11:24:25.867Z,2.23
2022-11-04T11:26:57.860Z,2.57
2022-11-04T11:29:30.279Z,2.33
2022-11-04T11:31:59.221Z,2.13
2022-11-04T11:34:32.864Z,2.23
2022-11-04T11:37:01.240Z,2.80
2022-11-04T11:39:30.975Z,2.67
2022-11-04T11:41:58.605Z,3.10
2022-11-04T11:44:52.259Z,3.27
2022-11-04T11:47:22.574Z,2.93
2022-11-04T11:50:08.831Z,2.90
2022-11-04T11:52:37.248Z,2.50
2022-11-04T11:55:22.173Z,2.07
2022-11-04T12:01:06.865Z,2.27
2022-11-04T12:09:46.739Z,2.23
2022-11-04T12:12:17.349Z,2.53
2022-11-04T12:15:04.128Z,2.33
2022-11-04T12:17:32.156Z,2.17
2022-11-04T12:20:18.500Z,1.80
2022-11-04T12:26:24.800Z,2.53
2022-11-04T12:29:10.931Z,2.37
2022-11-04T12:31:43.807Z,2.37
2022-11-04T12:34:34.989Z,2.40
2022-11-04T12:37:15.284Z,2.00
2022-11-04T12:39:42.895Z,2.93
2022-11-04T12:42:33.051Z,2.67
2022-11-04T12:45:09.737Z,2.43
2022-11-04T12:47:56.016Z,2.30
2022-11-04T12:50:42.453Z,2.03
2022-11-04T12:53:28.361Z,2.40
2022-11-04T12:56:02.033Z,2.57
2022-11-04T12:58:41.569Z,2.20
2022-11-04T13:01:15.503Z,1.97
2022-11-04T13:03:47.142Z,2.13
2022-11-04T13:06:20.250Z,2.17
2022-11-04T13:08:47.698Z,2.37
2022-11-04T13:11:20.725Z,2.77
2022-11-04T13:13:50.289Z,2.90
2022-11-04T13:16:17.900Z,2.90
2022-11-04T13:18:45.944Z,2.67
2022-11-04T13:21:22.533Z,2.50
2022-11-04T13:23:57.448Z,2.80
2022-11-04T13:26:25.321Z,2.87
2022-11-04T13:29:02.954Z,3.30
2022-11-04T13:31:36.784Z,2.83
2022-11-04T13:34:23.108Z,2.87
2022-11-04T13:37:00.314Z,2.70
2022-11-04T13:39:34.909Z,2.90
2022-11-04T13:45:21.112Z,3.10
2022-11-04T13:47:50.204Z,2.80
2022-11-04T13:50:33.593Z,3.97
2022-11-04T13:53:01.212Z,3.30
2022-11-04T13:55:28.791Z,3.20
2022-11-04T13:57:56.374Z,3.03
2022-11-04T14:00:25.156Z,3.17
2022-11-04T14:02:54.052Z,3.63
2022-11-04T14:05:24.718Z,3.03
2022-11-04T14:08:01.181Z,3.10
2022-11-04T14:10:44.073Z,3.17
2022-11-04T14:13:27.018Z,2.90
2022-11-04T14:16:00.706Z,3.50
2022-11-04T14:18:38.916Z,3.37
2022-11-04T14:21:06.482Z,2.87
2022-11-04T14:23:34.285Z,2.67
2022-11-04T14:26:03.309Z,3.33
2022-11-04T14:28:31.593Z,3.27
2022-11-04T14:31:00.439Z,3.43
2022-11-04T14:33:42.269Z,3.20
2022-11-04T14:36:21.828Z,2.77
2022-11-04T14:39:09.651Z,3.50
2022-11-04T14:41:40.347Z,3.10
2022-11-04T14:44:10.120Z,3.00
2022-11-04T14:46:44.329Z,3.00
2022-11-04T14:49:29.056Z,3.40
2022-11-04T14:51:56.898Z,2.97
2022-11-04T14:54:30.318Z,2.97
2022-11-04T14:57:17.643Z,3.10
2022-11-04T15:00:20.933Z,3.40
2022-11-04T15:02:48.685Z,3.17
2022-11-04T15:08:41.489Z,3.10
2022-11-04T15:11:16.857Z,3.00
2022-11-04T15:13:44.886Z,3.67
2022-11-04T15:16:31.136Z,3.90
2022-11-04T15:19:00.878Z,3.40
2022-11-04T15:21:28.647Z,3.47
2022-11-04T15:23:56.656Z,3.70
2022-11-04T15:26:30.060Z,3.83
2022-11-04T15:28:59.601Z,4.20
2022-11-04T15:31:31.027Z,4.13
2022-11-04T15:34:13.170Z,3.60
2022-11-04T15:36:42.922Z,4.50
2022-11-04T15:39:18.389Z,5.77
2022-11-04T15:41:46.693Z,8.10
2022-11-04T15:44:18.882Z,7.07
2022-11-04T15:46:48.560Z,7.17
2022-11-04T15:49:21.472Z,6.00
2022-11-04T15:51:49.306Z,4.70
2022-11-04T15:54:16.762Z,5.20
2022-11-04T15:56:48.908Z,5.07
2022-11-04T15:59:17.981Z,4.93
2022-11-04T16:01:46.790Z,5.13
2022-11-04T16:04:15.916Z,5.23
2022-11-04T16:06:44.923Z,5.27
2022-11-04T16:09:24.206Z,5.50
2022-11-04T16:12:05.369Z,6.13
2022-11-04T16:14:33.031Z,6.97
2022-11-04T16:17:00.632Z,7.13
2022-11-04T16:19:29.153Z,7.20
2022-11-04T16:22:01.011Z,8.90
2022-11-04T16:24:32.140Z,9.90
2022-11-04T16:26:59.941Z,9.10
2022-11-04T16:29:32.722Z,8.17
2022-11-04T16:32:20.036Z,7.80
2022-11-04T16:34:49.566Z,8.33
2022-11-04T16:37:18.737Z,8.77
2022-11-04T16:39:46.923Z,8.93
2022-11-04T16:42:15.203Z,10.50
2022-11-04T16:44:52.965Z,9.30
2022-11-04T16:47:20.596Z,8.50
2022-11-04T16:49:48.102Z,7.97
2022-11-04T16:52:19.466Z,8.00
2022-11-04T16:54:49.844Z,7.40
2022-11-04T16:57:17.543Z,7.77
2022-11-04T16:59:45.293Z,8.03
2022-11-04T17:02:18.769Z,8.03
2022-11-04T17:04:46.572Z,8.63
2022-11-04T17:07:15.552Z,7.47
2022-11-04T17:09:43.266Z,7.63
2022-11-04T17:12:10.797Z,8.83
2022-11-04T17:14:38.477Z,8.00
2022-11-04T17:17:06.062Z,8.30
2022-11-04T17:19:34.957Z,8.73
2022-11-04T17:22:03.965Z,8.80
2022-11-04T17:24:31.558Z,9.67
2022-11-04T17:26:59.394Z,8.83
2022-11-04T17:29:32.163Z,9.63
2022-11-04T17:32:00.007Z,10.23
2022-11-04T17:34:30.170Z,9.20
2022-11-04T17:36:57.804Z,9.37
2022-11-04T17:39:25.589Z,9.63
2022-11-04T17:41:53.193Z,9.57
2022-11-04T17:44:22.282Z,9.80
2022-11-04T17:46:49.915Z,9.17
2022-11-04T17:49:18.845Z,10.23
2022-11-04T17:51:48.231Z,10.90
2022-11-04T17:54:16.139Z,10.13
2022-11-04T17:56:43.892Z,11.47
2022-11-04T17:59:12.887Z,11.10
2022-11-04T18:01:41.389Z,10.80
2022-11-04T18:04:12.606Z,11.47
2022-11-04T18:06:40.150Z,12.10
2022-11-04T18:09:07.998Z,11.50
2022-11-04T18:11:35.640Z,11.53
2022-11-04T18:14:03.348Z,11.53
2022-11-04T18:16:30.835Z,11.73
2022-11-04T18:18:59.105Z,11.80
2022-11-04T18:21:27.399Z,15.07
2022-11-04T18:23:58.154Z,14.10
2022-11-04T18:26:26.227Z,12.73
2022-11-04T18:28:53.742Z,13.50
2022-11-04T18:31:24.619Z,13.47
2022-11-04T18:33:52.528Z,15.03
2022-11-04T18:36:20.181Z,15.93
2022-11-04T18:38:48.089Z,15.73
2022-11-04T18:41:15.627Z,16.70
2022-11-04T18:43:43.254Z,15.57
2022-11-04T18:46:14.861Z,15.90
2022-11-04T18:48:42.988Z,14.10
2022-11-04T18:51:13.324Z,15.07
2022-11-04T18:53:40.966Z,15.27
2022-11-04T18:56:09.869Z,15.73
2022-11-04T18:58:38.545Z,16.67
2022-11-04T19:01:07.491Z,17.33
2022-11-04T19:03:35.749Z,16.10
2022-11-04T19:06:07.051Z,16.03
2022-11-04T19:08:35.142Z,17.07
2022-11-04T19:11:03.039Z,18.43
2022-11-04T19:13:30.526Z,19.13
2022-11-04T19:16:04.192Z,18.00
2022-11-04T19:18:31.739Z,19.23
2022-11-04T19:21:03.379Z,18.47
2022-11-04T19:23:31.514Z,17.30
2022-11-04T19:26:02.160Z,16.70
2022-11-04T19:28:44.562Z,16.90
2022-11-04T19:31:19.909Z,16.53
2022-11-04T19:33:47.845Z,17.07
2022-11-04T19:36:16.418Z,17.13
2022-11-04T19:38:43.871Z,19.53
2022-11-04T19:41:16.084Z,16.37
2022-11-04T19:43:43.566Z,16.87
2022-11-04T19:46:10.997Z,17.53
2022-11-04T19:48:38.561Z,16.93
2022-11-04T19:51:06.114Z,16.40
2022-11-04T19:53:33.610Z,17.17
2022-11-04T19:56:01.073Z,19.03
2022-11-04T19:58:28.638Z,17.43
2022-11-04T20:00:56.144Z,17.70
2022-11-04T20:03:23.651Z,18.50
2022-11-04T20:05:51.182Z,18.53
2022-11-04T20:08:18.703Z,17.03
2022-11-04T20:10:46.157Z,16.60
2022-11-04T20:13:18.343Z,16.97
2022-11-04T20:15:45.813Z,17.10
2022-11-04T20:18:13.383Z,16.80
2022-11-04T20:20:41.100Z,15.50
2022-11-04T20:23:08.538Z,15.30
2022-11-04T20:25:36.070Z,14.30
2022-11-04T20:28:04.897Z,13.67
2022-11-04T20:30:32.472Z,13.40
2022-11-04T20:32:59.940Z,12.47
2022-11-04T20:35:27.473Z,11.40
2022-11-04T20:37:54.941Z,11.57
2022-11-04T20:40:22.650Z,11.43
2022-11-04T20:42:50.301Z,11.57
2022-11-04T20:45:18.533Z,13.07
2022-11-04T20:47:46.258Z,14.97
2022-11-04T20:50:13.815Z,12.10
2022-11-04T20:52:41.284Z,12.60
2022-11-04T20:55:09.153Z,12.93
2022-11-04T20:57:36.672Z,12.17
2022-11-04T21:00:04.991Z,11.73
2022-11-04T21:02:32.545Z,11.27
2022-11-04T21:05:08.931Z,10.13
2022-11-04T21:07:36.409Z,10.33
2022-11-04T21:10:03.986Z,10.83
2022-11-04T21:12:31.424Z,10.00
2022-11-04T21:14:58.913Z,11.00
2022-11-04T21:17:26.367Z,10.30
2022-11-04T21:19:53.855Z,11.53
2022-11-04T21:22:21.326Z,10.97
2022-11-04T21:24:48.824Z,9.53
2022-11-04T21:27:16.273Z,10.90
2022-11-04T21:29:43.806Z,10.87
2022-11-04T21:32:11.322Z,10.27
2022-11-04T21:34:38.954Z,10.13
2022-11-04T21:37:06.414Z,9.73
2022-11-04T21:39:33.883Z,10.33
2022-11-04T21:42:01.359Z,9.97
2022-11-04T21:44:28.918Z,9.77
2022-11-04T21:46:56.429Z,9.33
2022-11-04T21:49:23.954Z,9.27
2022-11-04T21:51:51.427Z,9.80
2022-11-04T21:54:18.966Z,8.03
2022-11-04T21:56:46.430Z,8.63
2022-11-04T21:59:18.181Z,9.70
2022-11-04T22:01:46.284Z,9.13
2022-11-04T22:04:13.882Z,9.93
2022-11-04T22:06:41.406Z,8.87
2022-11-04T22:09:09.971Z,8.80
2022-11-04T22:11:37.506Z,9.50
2022-11-04T22:14:05.838Z,10.03
2022-11-04T22:16:34.398Z,8.93
2022-11-04T22:19:03.584Z,10.87
2022-11-04T22:21:31.528Z,9.47
2022-11-04T22:23:59.127Z,9.30
2022-11-04T22:26:28.490Z,9.03
2022-11-04T22:28:56.442Z,8.83
2022-11-04T22:31:23.891Z,9.67
2022-11-04T22:33:51.851Z,8.83
2022-11-04T22:36:19.357Z,9.30
2022-11-04T22:38:46.907Z,9.00
2022-11-04T22:41:16.267Z,9.27
2022-11-04T22:43:43.729Z,9.40
2022-11-04T22:46:18.690Z,9.73
2022-11-04T22:48:46.206Z,9.43
2022-11-04T22:51:13.957Z,9.07
2022-11-04T22:53:41.700Z,9.03
2022-11-04T22:56:10.137Z,10.40
2022-11-04T22:58:37.993Z,9.77
2022-11-04T23:01:09.845Z,10.90
2022-11-04T23:03:37.532Z,10.13
2022-11-04T23:06:05.533Z,9.97
2022-11-04T23:08:33.883Z,10.67
2022-11-04T23:11:03.113Z,10.53
2022-11-04T23:13:30.740Z,10.27
2022-11-04T23:16:01.295Z,10.10
2022-11-04T23:18:28.825Z,10.13
2022-11-04T23:20:56.295Z,11.17
2022-11-04T23:23:23.763Z,10.33
2022-11-04T23:25:51.218Z,10.73
2022-11-04T23:28:18.792Z,10.60
2022-11-04T23:30:47.219Z,11.63
2022-11-04T23:33:15.572Z,10.47
2022-11-04T23:35:44.702Z,10.37
2022-11-04T23:38:12.406Z,10.70
2022-11-04T23:40:39.900Z,10.60
2022-11-04T23:43:07.551Z,11.60
2022-11-04T23:45:35.259Z,10.50
2022-11-04T23:48:02.807Z,10.90
2022-11-04T23:50:34.841Z,11.53
2022-11-04T23:53:02.996Z,11.80
2022-11-04T23:55:30.475Z,11.07
2022-11-04T23:57:58.018Z,11.37
